Time;durP1;ratioP1;P1;durP2;ratioP2;P2;SDS_P1;SDS_P2;PMS_P1;PMS_P2;Temp;Humidity;BMP_temperature;BMP_pressure;BME280_temperature;BME280_humidity;BME280_pressure;Samples;Min_cycle;Max_cycle;Signal;HPM_P1;HPM_P2
2022/08/03 00:01:22;;;;;;;;;;;;;;;21.05;69.86;101068.72;4920173;28;122023;-82
2022/08/03 00:03:47;;;;;;;;;;;;;;;21.03;70.01;101062.91;4941073;28;124270;-83
2022/08/03 00:06:13;;;;;;;;;;;;;;;21.03;69.89;101064.94;4952609;28;120485;-82
2022/08/03 00:08:38;;;;;;;;;;;;;;;21.01;69.70;101064.69;4955829;28;120397;-83
2022/08/03 00:11:05;;;;;;;;;;;;;;;21.01;69.72;101059.13;4952889;28;121749;-83
2022/08/03 00:13:32;;;;;;;;;;;;;;;21.00;69.73;101057.59;4950705;28;120700;-82
2022/08/03 00:15:58;;;;;;;;;;;;;;;20.99;69.52;101058.88;4933964;28;120640;-83
2022/08/03 00:18:23;;;;;;;;;;;;;;;20.98;69.89;101060.16;4949717;28;120700;-82
2022/08/03 00:20:49;;;;;;;;;;;;;;;20.98;69.40;101062.94;4951604;28;121273;-83
2022/08/03 00:23:14;;;;;;;;;;;;;;;20.96;69.80;101052.28;4915712;28;123804;-82
2022/08/03 00:25:40;;;;;;;;;;;;;;;20.95;70.04;101050.78;4932028;28;120852;-82
2022/08/03 00:28:05;;;;;;;;;;;;;;;20.94;69.71;101059.66;4932284;28;123124;-83
2022/08/03 00:30:31;;;;;;;;;;;;;;;20.92;69.66;101053.84;4919390;28;124164;-83
2022/08/03 00:32:57;;;;;;;;;;;;;;;20.90;69.50;101053.59;4924314;28;121124;-83
2022/08/03 00:35:23;;;;;;;;;;;;;;;20.89;69.91;101058.41;4934253;28;124688;-83
2022/08/03 00:37:49;;;;;;;;;;;;;;;20.88;69.65;101047.78;4946431;28;120408;-82
2022/08/03 00:40:15;;;;;;;;;;;;;;;20.86;70.07;101041.97;4932292;28;120268;-83
2022/08/03 00:42:49;;;;;;;;;;;;;;;20.84;70.02;101037.66;4940190;28;123584;-82
2022/08/03 00:45:15;;;;;;;;;;;;;;;20.83;69.93;101041.72;4941957;28;120557;-83
2022/08/03 00:47:41;;;;;;;;;;;;;;;20.84;70.08;101037.66;4942280;28;120426;-82
2022/08/03 00:50:06;;;;;;;;;;;;;;;20.84;70.09;101046.03;4947998;28;120603;-82
2022/08/03 00:52:33;;;;;;;;;;;;;;;20.85;70.08;101035.63;4947582;28;120435;-83
2022/08/03 00:54:59;;;;;;;;;;;;;;;20.84;69.89;101034.09;4940452;28;120742;-82
2022/08/03 00:57:25;;;;;;;;;;;;;;;20.81;69.83;101024.72;4925473;28;120566;-82
2022/08/03 00:59:50;;;;;;;;;;;;;;;20.80;70.08;101026.00;4936951;28;120664;-83
2022/08/03 01:02:25;;;;;;;;;;;;;;;20.79;70.01;101023.72;4927415;28;122977;-82
2022/08/03 01:04:51;;;;;;;;;;;;;;;20.77;70.16;101018.66;4937850;28;121154;-82
2022/08/03 01:07:20;;;;;;;;;;;;;;;20.75;70.10;101017.66;4920856;28;122407;-82
2022/08/03 01:09:54;;;;;;;;;;;;;;;20.74;70.19;101013.34;4938146;28;120908;-82
2022/08/03 01:12:35;;;;;;;;;;;;;;;20.72;70.03;101011.09;4923467;28;120396;-82
2022/08/03 01:15:04;;;;;;;;;;;;;;;20.69;69.74;101012.13;4941356;28;122180;-82
2022/08/03 01:17:49;;;;;;;;;;;;;;;20.68;69.82;101016.16;4939326;28;121143;-83
2022/08/03 01:20:16;;;;;;;;;;;;;;;20.68;69.80;101018.97;4924319;28;120579;-82
2022/08/03 01:22:53;;;;;;;;;;;;;;;20.68;70.20;101009.84;4958153;28;120471;-82
2022/08/03 01:25:44;;;;;;;;;;;;;;;20.68;70.16;101010.59;4937261;28;120455;-82
2022/08/03 01:28:29;;;;;;;;;;;;;;;20.68;69.99;101016.16;4923306;28;122784;-83
2022/08/03 01:30:57;;;;;;;;;;;;;;;20.67;69.90;101020.22;4929860;28;123921;-82
2022/08/03 01:33:25;;;;;;;;;;;;;;;20.68;70.35;101009.84;4935517;28;121958;-82
2022/08/03 01:35:58;;;;;;;;;;;;;;;20.70;69.96;101008.06;4938257;28;120851;-83
2022/08/03 01:38:26;;;;;;;;;;;;;;;20.71;70.06;101009.56;4945756;28;124714;-83
2022/08/03 01:40:53;;;;;;;;;;;;;;;20.75;70.16;101003.72;4938431;28;120281;-83
2022/08/03 01:43:20;;;;;;;;;;;;;;;20.76;70.16;101008.78;4948007;28;120955;-83
2022/08/03 01:45:46;;;;;;;;;;;;;;;20.77;69.67;101004.72;4946585;28;120420;-83
2022/08/03 01:48:14;;;;;;;;;;;;;;;20.79;70.16;101004.97;4949171;28;120783;-82
2022/08/03 01:50:41;;;;;;;;;;;;;;;20.81;70.00;101002.41;4948462;28;120419;-82
2022/08/03 01:53:07;;;;;;;;;;;;;;;20.83;70.05;101005.47;4950492;28;120239;-82
2022/08/03 01:55:35;;;;;;;;;;;;;;;20.86;69.92;101000.91;4931788;28;120440;-83
2022/08/03 01:58:02;;;;;;;;;;;;;;;20.89;70.18;100999.09;4930022;28;124050;-83
2022/08/03 02:00:29;;;;;;;;;;;;;;;20.90;69.80;101003.41;4932925;28;120372;-82
2022/08/03 02:02:54;;;;;;;;;;;;;;;20.91;69.74;100999.34;4936846;28;123636;-82
2022/08/03 02:05:20;;;;;;;;;;;;;;;20.92;69.35;101000.88;4923643;28;121021;-82
2022/08/03 02:07:46;;;;;;;;;;;;;;;20.93;69.63;100996.78;4937592;28;122365;-82
2022/08/03 02:10:13;;;;;;;;;;;;;;;20.95;69.47;100999.81;4913170;28;122932;-82
2022/08/03 02:12:41;;;;;;;;;;;;;;;20.95;69.94;100995.00;4947445;28;120295;-82
2022/08/03 02:15:08;;;;;;;;;;;;;;;20.95;69.64;100992.22;4941846;28;120142;-82
2022/08/03 02:17:33;;;;;;;;;;;;;;;20.94;69.54;100985.13;4932212;28;120685;-83
2022/08/03 02:20:00;;;;;;;;;;;;;;;20.94;69.69;100987.91;4923967;28;120272;-83
2022/08/03 02:22:26;;;;;;;;;;;;;;;20.93;69.13;100996.78;4931725;28;120837;-82
2022/08/03 02:24:51;;;;;;;;;;;;;;;20.92;69.44;100986.91;4932687;28;120738;-82
2022/08/03 02:27:19;;;;;;;;;;;;;;;20.91;69.50;100986.16;4949672;28;120531;-82
2022/08/03 02:29:47;;;;;;;;;;;;;;;20.90;68.89;100979.06;4934512;28;120905;-83
2022/08/03 02:32:15;;;;;;;;;;;;;;;20.90;69.15;100973.50;4951393;28;120312;-83
2022/08/03 02:34:43;;;;;;;;;;;;;;;20.92;69.35;100970.19;4949063;28;120501;-82
2022/08/03 02:37:09;;;;;;;;;;;;;;;20.93;69.29;100971.69;4944695;28;121260;-82
2022/08/03 02:39:35;;;;;;;;;;;;;;;20.94;69.56;100976.00;4946238;28;120157;-82
2022/08/03 02:42:01;;;;;;;;;;;;;;;20.95;68.86;100969.16;4947425;28;122995;-82
2022/08/03 02:44:28;;;;;;;;;;;;;;;20.96;69.00;100959.50;4935879;28;120245;-83
2022/08/03 02:46:54;;;;;;;;;;;;;;;20.97;69.62;100969.38;4938216;28;124217;-82
2022/08/03 02:49:20;;;;;;;;;;;;;;;20.94;69.27;100965.59;4935091;28;120895;-81
2022/08/03 02:51:48;;;;;;;;;;;;;;;20.95;69.25;100971.94;4938064;28;120210;-82
2022/08/03 02:54:16;;;;;;;;;;;;;;;20.93;69.11;100964.09;4929212;28;122544;-82
2022/08/03 02:56:43;;;;;;;;;;;;;;;20.92;68.90;100967.41;4938505;28;124845;-82
2022/08/03 02:59:09;;;;;;;;;;;;;;;20.91;68.98;100965.88;4945921;28;121075;-82
2022/08/03 03:01:34;;;;;;;;;;;;;;;20.89;68.99;100954.50;4948479;28;122078;-82
2022/08/03 03:04:00;;;;;;;;;;;;;;;20.89;69.01;100946.13;4951602;28;120918;-82
2022/08/03 03:06:26;;;;;;;;;;;;;;;20.89;69.31;100943.34;4944966;28;122272;-82
2022/08/03 03:08:52;;;;;;;;;;;;;;;20.88;68.85;100952.97;4929128;28;124521;-82
2022/08/03 03:11:19;;;;;;;;;;;;;;;20.87;68.94;100954.25;4943424;28;120151;-82
2022/08/03 03:13:45;;;;;;;;;;;;;;;20.86;69.11;100953.50;4946558;28;120185;-82
2022/08/03 03:16:13;;;;;;;;;;;;;;;20.86;69.03;100949.94;4949497;28;120519;-82
2022/08/03 03:18:39;;;;;;;;;;;;;;;20.86;69.14;100950.72;4922116;28;120346;-83
2022/08/03 03:21:06;;;;;;;;;;;;;;;20.86;68.62;100947.16;4944467;28;122171;-81
2022/08/03 03:23:34;;;;;;;;;;;;;;;20.85;68.74;100957.56;4951973;28;123477;-82
2022/08/03 03:26:01;;;;;;;;;;;;;;;20.85;69.00;100946.41;4957724;28;120313;-83
2022/08/03 03:28:27;;;;;;;;;;;;;;;20.83;68.89;100944.13;4932948;28;120596;-82
2022/08/03 03:30:55;;;;;;;;;;;;;;;20.82;68.83;100944.66;4934243;28;120009;-82
2022/08/03 03:33:21;;;;;;;;;;;;;;;20.79;68.52;100946.41;4933239;28;119975;-82
2022/08/03 03:35:47;;;;;;;;;;;;;;;20.77;68.61;100948.22;4938319;28;121202;-82
2022/08/03 03:38:12;;;;;;;;;;;;;;;20.75;68.88;100937.56;4937600;28;119992;-83
2022/08/03 03:40:38;;;;;;;;;;;;;;;20.75;69.02;100939.59;4949427;28;120434;-82
2022/08/03 03:43:10;;;;;;;;;;;;;;;20.71;68.87;100939.13;4933460;28;120539;-82
2022/08/03 03:45:36;;;;;;;;;;;;;;;20.69;68.54;100936.09;4948818;28;120439;-82
2022/08/03 03:48:05;;;;;;;;;;;;;;;20.68;68.83;100935.34;4936683;28;122003;-82
2022/08/03 03:50:31;;;;;;;;;;;;;;;20.67;68.65;100931.03;4935572;28;120013;-82
2022/08/03 03:52:57;;;;;;;;;;;;;;;20.66;68.76;100931.56;4937809;28;122533;-82
2022/08/03 03:55:23;;;;;;;;;;;;;;;20.65;69.22;100936.38;4940843;28;123569;-83
2022/08/03 03:57:49;;;;;;;;;;;;;;;20.67;68.80;100936.63;4927409;28;120123;-82
2022/08/03 04:00:15;;;;;;;;;;;;;;;20.69;68.81;100939.63;4945702;28;123119;-81
2022/08/03 04:02:41;;;;;;;;;;;;;;;20.71;69.25;100941.91;4935238;28;120660;-82
2022/08/03 04:10:57;;;;;;;;;;;;;;;20.80;68.92;100933.22;4948923;28;121134;-82
2022/08/03 04:13:26;;;;;;;;;;;;;;;20.82;68.66;100942.63;4929224;28;122210;-82
2022/08/03 04:15:52;;;;;;;;;;;;;;;20.84;69.07;100937.28;4952505;28;120531;-83
2022/08/03 04:18:18;;;;;;;;;;;;;;;20.89;68.93;100940.56;4922460;28;120798;-82
2022/08/03 04:20:46;;;;;;;;;;;;;;;20.94;69.20;100954.47;4947932;28;122737;-82
2022/08/03 04:23:12;;;;;;;;;;;;;;;20.98;68.79;100952.13;4936951;28;121105;-82
2022/08/03 04:25:39;;;;;;;;;;;;;;;21.01;68.54;100947.56;4947995;28;120597;-82
2022/08/03 04:28:31;;;;;;;;;;;;;;;21.01;68.72;100953.91;4936168;28;120619;-82
2022/08/03 04:30:57;;;;;;;;;;;;;;;21.03;68.89;100947.81;4937244;28;124757;-82
2022/08/03 04:33:25;;;;;;;;;;;;;;;21.04;68.68;100946.53;4951686;28;120219;-83
2022/08/03 04:35:53;;;;;;;;;;;;;;;21.03;68.72;100942.97;4933527;28;124125;-82
2022/08/03 04:38:20;;;;;;;;;;;;;;;21.04;68.77;100947.28;4951794;28;120177;-83
2022/08/03 04:40:45;;;;;;;;;;;;;;;21.11;69.05;100941.16;4922790;28;123078;-82
2022/08/03 04:43:12;;;;;;;;;;;;;;;21.18;68.77;100942.63;4914774;28;124006;-83
2022/08/03 04:45:38;;;;;;;;;;;;;;;21.27;68.80;100947.16;4932219;28;121068;-83
2022/08/03 04:48:24;;;;;;;;;;;;;;;21.35;68.96;100948.13;4931609;28;120462;-82
2022/08/03 04:50:49;;;;;;;;;;;;;;;21.43;68.47;100951.84;4939226;28;122311;-83
2022/08/03 04:53:15;;;;;;;;;;;;;;;21.52;68.87;100959.13;4939181;28;121140;-82
2022/08/03 04:55:40;;;;;;;;;;;;;;;21.61;68.72;100947.66;4930682;28;121240;-82
2022/08/03 04:58:06;;;;;;;;;;;;;;;;;;4938531;28;121183;-83
2022/08/03 05:00:31;;;;;;;;;;;;;;;21.83;68.36;100955.81;4942128;28;121376;-82
2022/08/03 05:02:57;;;;;;;;;;;;;;;21.94;68.26;100947.31;4981828;28;124437;-82
2022/08/03 05:05:22;;;;;;;;;;;;;;;22.05;68.38;100952.09;4932285;28;121543;-82
2022/08/03 05:07:50;;;;;;;;;;;;;;;22.15;68.65;100960.84;4948340;28;122014;-83
2022/08/03 05:10:16;;;;;;;;;;;;;;;22.25;67.79;100962.78;4930259;28;122121;-81
2022/08/03 05:12:43;;;;;;;;;;;;;;;22.35;67.90;100957.59;4929690;28;122088;-82
2022/08/03 05:15:09;;;;;;;;;;;;;;;22.46;67.65;100968.63;4933335;28;122494;-82
2022/08/03 05:17:35;;;;;;;;;;;;;;;22.52;67.88;100966.53;4913935;28;122110;-83
2022/08/03 05:20:02;;;;;;;;;;;;;;;22.51;67.75;100942.66;4943759;28;124496;-82
2022/08/03 05:22:28;;;;;;;;;;;;;;;22.61;67.81;100954.22;4927563;28;126130;-82
2022/08/03 05:24:54;;;;;;;;;;;;;;;22.63;67.45;100949.59;4936001;28;121802;-83
2022/08/03 05:27:19;;;;;;;;;;;;;;;22.65;67.69;100947.03;4912587;28;124068;-82
2022/08/03 05:29:45;;;;;;;;;;;;;;;22.66;67.86;100959.72;4930086;28;122120;-82
2022/08/03 05:32:11;;;;;;;;;;;;;;;22.72;67.34;100965.25;4928792;28;121708;-83
2022/08/03 05:34:37;;;;;;;;;;;;;;;22.77;67.17;100963.66;4931834;28;123744;-83
2022/08/03 05:37:03;;;;;;;;;;;;;;;22.81;67.40;100969.72;4951678;28;122225;-82
2022/08/03 05:39:28;;;;;;;;;;;;;;;22.85;66.83;100965.34;4948174;28;124102;-82
2022/08/03 05:41:54;;;;;;;;;;;;;;;22.88;67.15;100961.50;4943838;28;122729;-83
2022/08/03 05:44:19;;;;;;;;;;;;;;;22.93;66.74;100965.50;4945085;28;123527;-83
2022/08/03 05:46:45;;;;;;;;;;;;;;;22.97;67.54;100960.38;4929021;28;122093;-82
2022/08/03 05:49:11;;;;;;;;;;;;;;;22.99;67.54;100957.78;4930319;28;122118;-82
2022/08/03 05:51:36;;;;;;;;;;;;;;;23.03;66.80;100963.84;4944523;28;122093;-82
2022/08/03 05:54:02;;;;;;;;;;;;;;;23.07;67.49;100971.91;4932507;28;121702;-82
2022/08/03 05:56:28;;;;;;;;;;;;;;;23.12;67.00;100971.84;4928332;28;122275;-83
2022/08/03 05:58:53;;;;;;;;;;;;;;;23.16;67.38;100963.88;4933411;28;122746;-82
2022/08/03 06:01:21;;;;;;;;;;;;;;;23.23;67.19;100954.88;4928537;28;122695;-82
2022/08/03 06:03:47;;;;;;;;;;;;;;;23.29;67.16;100963.19;4927280;28;122028;-82
2022/08/03 06:06:40;;;;;;;;;;;;;;;23.35;67.22;100960.28;4926790;28;122891;-83
2022/08/03 06:09:06;;;;;;;;;;;;;;;23.42;67.06;100970.88;4930932;28;123650;-83
2022/08/03 06:11:31;;;;;;;;;;;;;;;23.46;67.04;100972.09;4932370;28;121945;-82
2022/08/03 06:13:57;;;;;;;;;;;;;;;23.53;66.96;100971.44;4934964;28;122139;-82
2022/08/03 06:16:22;;;;;;;;;;;;;;;23.65;67.43;100962.88;4931802;28;122241;-83
2022/08/03 06:18:53;;;;;;;;;;;;;;;23.76;66.75;100954.28;4953981;28;122074;-83
2022/08/03 06:21:19;;;;;;;;;;;;;;;23.86;66.64;100958.94;4947270;28;122788;-83
2022/08/03 06:23:45;;;;;;;;;;;;;;;23.97;66.55;100962.84;4945001;28;122218;-82
2022/08/03 06:26:23;;;;;;;;;;;;;;;24.07;66.32;100959.06;4924416;28;121903;-82
2022/08/03 06:28:49;;;;;;;;;;;;;;;24.21;65.81;100957.03;4929594;28;122411;-83
2022/08/03 06:31:14;;;;;;;;;;;;;;;24.33;65.70;100954.75;4942943;28;124011;-82
2022/08/03 06:33:40;;;;;;;;;;;;;;;24.47;65.40;100964.69;4934433;28;122427;-83
2022/08/03 06:36:05;;;;;;;;;;;;;;;24.60;65.32;100953.44;4926077;28;125136;-83
2022/08/03 06:38:31;;;;;;;;;;;;;;;24.72;65.06;100963.13;4947081;28;122437;-83
2022/08/03 06:40:56;;;;;;;;;;;;;;;24.81;64.80;100956.28;4947596;28;124965;-83
2022/08/03 06:43:22;;;;;;;;;;;;;;;24.90;64.49;100949.50;4932258;28;123445;-83
2022/08/03 06:45:47;;;;;;;;;;;;;;;25.01;64.44;100961.22;4947171;28;123970;-83
2022/08/03 06:48:13;;;;;;;;;;;;;;;25.11;63.77;100963.59;4927979;28;122336;-83
2022/08/03 06:50:40;;;;;;;;;;;;;;;25.20;63.86;100963.09;4945853;28;122399;-83
2022/08/03 06:53:06;;;;;;;;;;;;;;;25.33;63.99;100960.25;4929978;28;122124;-83
2022/08/03 06:55:31;;;;;;;;;;;;;;;25.43;63.56;100960.50;4942964;28;122937;-83
2022/08/03 06:57:57;;;;;;;;;;;;;;;25.52;63.08;100951.59;4925868;28;122354;-83
2022/08/03 07:00:23;;;;;;;;;;;;;;;25.59;62.85;100957.28;4949177;28;122441;-83
2022/08/03 07:02:48;;;;;;;;;;;;;;;25.65;62.78;100963.53;4949841;28;125345;-83
2022/08/03 07:05:14;;;;;;;;;;;;;;;25.70;62.65;100965.44;4944675;28;122192;-83
2022/08/03 07:07:40;;;;;;;;;;;;;;;25.74;62.29;100978.41;4942805;28;125373;-83
2022/08/03 07:10:06;;;;;;;;;;;;;;;25.78;62.11;100970.38;4941820;28;123283;-82
2022/08/03 07:12:32;;;;;;;;;;;;;;;25.77;61.99;100977.28;4946340;28;122015;-83
2022/08/03 07:14:59;;;;;;;;;;;;;;;25.74;61.72;100972.78;4938913;28;122554;-83
2022/08/03 07:17:24;;;;;;;;;;;;;;;25.76;61.78;100964.56;4943740;28;122070;-83
2022/08/03 07:19:50;;;;;;;;;;;;;;;25.75;61.67;100963.78;4942581;28;122289;-83
2022/08/03 07:22:15;;;;;;;;;;;;;;;25.76;61.30;100964.56;4921384;28;125390;-83
2022/08/03 07:24:52;;;;;;;;;;;;;;;25.72;60.97;100966.97;4946329;28;122211;-84
2022/08/03 07:27:18;;;;;;;;;;;;;;;25.72;61.43;100973.34;4939231;28;122902;-84
2022/08/03 07:29:43;;;;;;;;;;;;;;;25.76;61.18;100975.78;4929506;28;122431;-84
2022/08/03 07:32:09;;;;;;;;;;;;;;;25.79;61.14;100967.03;4920910;28;122063;-83
2022/08/03 07:34:34;;;;;;;;;;;;;;;25.81;61.31;100974.91;4946601;28;122926;-84
2022/08/03 07:37:00;;;;;;;;;;;;;;;25.81;61.25;100978.47;4937066;28;123610;-84
2022/08/03 07:39:25;;;;;;;;;;;;;;;25.82;61.25;100970.81;4923363;28;124425;-84
2022/08/03 07:41:51;;;;;;;;;;;;;;;25.82;61.23;100968.00;4922495;28;125825;-84
2022/08/03 07:44:20;;;;;;;;;;;;;;;25.82;61.18;100973.59;4925987;28;122216;-83
2022/08/03 07:46:45;;;;;;;;;;;;;;;25.79;60.94;100974.69;4940016;28;122206;-83
2022/08/03 07:49:11;;;;;;;;;;;;;;;25.77;61.11;100977.28;4938129;28;122439;-84
2022/08/03 07:51:37;;;;;;;;;;;;;;;25.78;61.27;100976.00;4937052;28;124468;-84
2022/08/03 07:54:03;;;;;;;;;;;;;;;25.86;61.62;100980.38;4936274;28;125034;-83
2022/08/03 07:56:28;;;;;;;;;;;;;;;26.06;61.21;100972.47;4938986;28;122429;-84
2022/08/03 07:58:54;;;;;;;;;;;;;;;26.31;61.19;100971.50;4918761;28;124319;-83
2022/08/03 08:01:20;;;;;;;;;;;;;;;26.49;61.12;100971.78;4936124;28;122420;-85
2022/08/03 08:03:46;;;;;;;;;;;;;;;26.55;60.59;100970.31;4935816;28;123677;-84
2022/08/03 08:06:11;;;;;;;;;;;;;;;26.60;60.22;100965.84;4923536;28;122456;-83
2022/08/03 08:08:40;;;;;;;;;;;;;;;26.64;59.63;100977.47;4934779;28;125997;-84
2022/08/03 08:11:05;;;;;;;;;;;;;;;26.73;59.25;100968.50;4942688;28;122837;-84
2022/08/03 08:13:31;;;;;;;;;;;;;;;26.82;58.93;100981.28;4928025;28;123793;-83
2022/08/03 08:15:56;;;;;;;;;;;;;;;26.98;59.24;100960.34;4927680;28;122558;-85
2022/08/03 08:18:22;;;;;;;;;;;;;;;27.13;59.12;100962.44;4941708;28;122930;-84
2022/08/03 08:20:48;;;;;;;;;;;;;;;27.31;59.05;100969.03;4932185;28;125247;-84
2022/08/03 08:23:14;;;;;;;;;;;;;;;27.44;58.47;100966.03;4931031;28;122166;-84
2022/08/03 08:25:40;;;;;;;;;;;;;;;27.59;57.60;100968.13;4948237;28;122022;-84
2022/08/03 08:28:05;;;;;;;;;;;;;;;27.66;57.20;100964.56;4949534;28;122987;-84
2022/08/03 08:30:31;;;;;;;;;;;;;;;27.76;57.03;100971.16;4946959;28;124460;-84
2022/08/03 08:32:57;;;;;;;;;;;;;;;27.85;56.66;100962.13;4942260;28;122603;-84
2022/08/03 08:35:23;;;;;;;;;;;;;;;27.92;56.41;100969.84;4942346;28;122696;-85
2022/08/03 08:37:49;;;;;;;;;;;;;;;28.00;56.36;100961.34;4944360;28;122233;-84
2022/08/03 08:40:14;;;;;;;;;;;;;;;28.00;55.68;100970.56;4944694;28;123326;-85
2022/08/03 08:42:40;;;;;;;;;;;;;;;28.03;55.22;100968.66;4946281;28;122385;-85
2022/08/03 08:45:07;;;;;;;;;;;;;;;28.05;55.35;100971.69;4945909;28;122542;-85
2022/08/03 08:48:06;;;;;;;;;;;;;;;28.09;55.83;100969.97;4926124;28;123692;-82
2022/08/03 08:50:32;;;;;;;;;;;;;;;28.20;55.81;100971.66;4930816;28;122324;-83
2022/08/03 08:53:00;;;;;;;;;;;;;;;28.25;55.40;100978.44;4943847;28;125163;-83
2022/08/03 08:55:26;;;;;;;;;;;;;;;28.31;55.77;100978.97;4945514;28;122052;-84
2022/08/03 08:57:55;;;;;;;;;;;;;;;28.45;55.47;100980.25;4962351;28;124068;-84
2022/08/03 09:00:21;;;;;;;;;;;;;;;28.57;54.99;100972.84;4929014;28;124633;-84
2022/08/03 09:02:47;;;;;;;;;;;;;;;28.62;54.75;100985.25;4945448;28;122627;-84
2022/08/03 09:05:17;;;;;;;;;;;;;;;28.70;54.99;100977.50;4945498;28;124657;-83
2022/08/03 09:07:43;;;;;;;;;;;;;;;28.82;54.67;100975.00;4945151;28;123701;-84
2022/08/03 09:10:10;;;;;;;;;;;;;;;28.86;54.42;100978.19;4925751;28;122509;-84
2022/08/03 09:12:41;;;;;;;;;;;;;;;28.87;54.13;100968.44;4947391;28;124285;-84
2022/08/03 09:15:16;;;;;;;;;;;;;;;28.82;54.10;100970.09;4928616;28;122424;-84
2022/08/03 09:17:42;;;;;;;;;;;;;;;28.71;54.26;100970.56;4934438;28;124831;-85
2022/08/03 09:20:08;;;;;;;;;;;;;;;28.63;53.61;100978.31;4943904;28;125377;-84
2022/08/03 09:22:50;;;;;;;;;;;;;;;28.50;54.27;100982.09;4942086;28;122428;-83
2022/08/03 09:25:15;;;;;;;;;;;;;;;28.53;54.77;100975.31;4942288;28;123941;-85
2022/08/03 09:27:42;;;;;;;;;;;;;;;28.68;55.27;100980.91;4928535;28;127582;-84
2022/08/03 09:30:17;;;;;;;;;;;;;;;28.85;54.92;100988.75;4953851;28;122355;-84
2022/08/03 09:32:44;;;;;;;;;;;;;;;28.94;54.41;100981.75;4940052;28;123051;-84
2022/08/03 09:35:12;;;;;;;;;;;;;;;29.02;54.27;100986.03;4965767;28;122885;-84
2022/08/03 09:37:40;;;;;;;;;;;;;;;29.10;54.22;100988.78;4948128;28;122895;-85
2022/08/03 09:40:35;;;;;;;;;;;;;;;29.17;53.93;100995.75;4921476;28;123293;-85
2022/08/03 09:43:03;;;;;;;;;;;;;;;29.14;53.96;100986.34;4950495;28;122782;-85
2022/08/03 09:45:29;;;;;;;;;;;;;;;29.14;53.98;100991.25;4944085;28;122706;-84
2022/08/03 09:47:55;;;;;;;;;;;;;;;29.10;53.53;100994.44;4946375;28;123175;-86
2022/08/03 09:50:21;;;;;;;;;;;;;;;28.97;53.51;101001.13;4945601;28;122603;-84
2022/08/03 09:52:49;;;;;;;;;;;;;;;28.83;53.35;100987.78;4951949;28;124215;-85
2022/08/03 09:55:15;;;;;;;;;;;;;;;28.63;53.73;100990.34;4944687;28;125992;-86
2022/08/03 09:57:45;;;;;;;;;;;;;;;28.55;54.73;100989.59;4967022;28;122421;-85
2022/08/03 10:00:14;;;;;;;;;;;;;;;28.56;54.89;101002.41;4944135;28;125887;-85
2022/08/03 10:02:41;;;;;;;;;;;;;;;28.62;54.99;100985.25;4945011;28;122201;-88
2022/08/03 10:05:08;;;;;;;;;;;;;;;28.51;54.53;100983.59;4927744;28;122205;-85
2022/08/03 10:07:49;;;;;;;;;;;;;;;28.43;54.84;100992.09;4943584;28;122906;-84
2022/08/03 10:10:15;;;;;;;;;;;;;;;28.41;55.30;100991.94;4950958;28;123873;-85
2022/08/03 10:12:41;;;;;;;;;;;;;;;28.33;55.21;100993.25;4960550;28;122527;-86
2022/08/03 10:15:09;;;;;;;;;;;;;;;28.32;55.39;100994.56;4942582;28;122950;-86
2022/08/03 10:17:35;;;;;;;;;;;;;;;28.25;55.55;100996.09;4927321;28;123093;-86
2022/08/03 10:20:02;;;;;;;;;;;;;;;28.19;55.58;100998.34;4964917;28;124228;-86
2022/08/03 10:22:32;;;;;;;;;;;;;;;28.09;55.69;100998.16;4945195;28;122349;-85
2022/08/03 10:24:59;;;;;;;;;;;;;;;28.06;56.22;100990.84;4956997;28;125537;-86
2022/08/03 10:27:26;;;;;;;;;;;;;;;28.14;56.46;100991.56;4959229;28;123415;-86
2022/08/03 10:29:53;;;;;;;;;;;;;;;28.28;57.11;100988.56;4957263;28;123072;-86
2022/08/03 10:32:39;;;;;;;;;;;;;;;28.42;57.20;100987.03;4956290;28;122270;-86
2022/08/03 10:35:08;;;;;;;;;;;;;;;28.59;56.97;100983.56;4938093;28;125638;-86
2022/08/03 10:37:39;;;;;;;;;;;;;;;28.78;57.13;100983.13;4957641;28;122245;-86
2022/08/03 10:40:20;;;;;;;;;;;;;;;28.97;56.48;100989.06;4937986;28;123705;-85
2022/08/03 10:42:46;;;;;;;;;;;;;;;29.02;55.15;100990.94;4957094;28;124113;-85
2022/08/03 10:45:19;;;;;;;;;;;;;;;29.07;54.95;100987.13;4959371;28;123028;-85
2022/08/03 10:47:46;;;;;;;;;;;;;;;29.04;54.80;100985.44;4927470;28;126252;-85
2022/08/03 10:50:35;;;;;;;;;;;;;;;29.00;55.24;100987.94;4946442;28;122494;-85
2022/08/03 10:53:04;;;;;;;;;;;;;;;29.01;54.89;100989.44;4941652;28;123787;-84
2022/08/03 10:58:46;;;;;;;;;;;;;;;29.25;55.11;100997.19;4958293;28;123288;-85
2022/08/03 11:01:12;;;;;;;;;;;;;;;29.28;54.41;100996.03;4958456;28;122413;-86
2022/08/03 11:03:53;;;;;;;;;;;;;;;29.26;54.61;100995.84;4962442;28;125339;-86
2022/08/03 11:06:25;;;;;;;;;;;;;;;29.26;54.20;100997.94;4956958;28;122226;-86
2022/08/03 11:09:08;;;;;;;;;;;;;;;29.32;55.12;100995.63;4958701;28;122937;-86
2022/08/03 11:11:34;;;;;;;;;;;;;;;29.43;54.97;101000.09;4942301;28;123012;-86
2022/08/03 11:14:03;;;;;;;;;;;;;;;29.47;54.36;101006.09;4956728;28;124542;-85
2022/08/03 11:16:34;;;;;;;;;;;;;;;29.48;54.05;101002.69;4907878;28;125845;-85
2022/08/03 11:19:04;;;;;;;;;;;;;;;29.44;53.92;101004.41;4941036;28;124810;-85
2022/08/03 11:21:51;;;;;;;;;;;;;;;29.35;54.01;101000.16;4908195;28;124590;-85
2022/08/03 11:24:35;;;;;;;;;;;;;;;29.33;53.69;101006.34;4940454;28;122503;-84
2022/08/03 11:27:19;;;;;;;;;;;;;;;29.30;53.45;101001.09;4946299;28;124504;-85
2022/08/03 11:30:03;;;;;;;;;;;;;;;29.20;54.10;101006.63;4920194;28;123369;-85
2022/08/03 11:32:36;;;;;;;;;;;;;;;29.21;54.15;100999.66;4945882;28;122036;-86
2022/08/03 11:35:11;;;;;;;;;;;;;;;29.23;54.06;100999.09;4942657;28;122608;-86
2022/08/03 11:37:54;;;;;;;;;;;;;;;29.26;53.87;100995.84;4926425;28;123243;-85
2022/08/03 11:40:40;;;;;;;;;;;;;;;29.23;54.31;101013.97;4927130;28;123306;-85
2022/08/03 11:43:07;;;;;;;;;;;;;;;29.23;54.16;101005.47;4914688;28;124312;-87
2022/08/03 11:45:33;;;;;;;;;;;;;;;29.23;53.87;101004.72;4945438;28;122989;-86
2022/08/03 11:48:01;;;;;;;;;;;;;;;29.28;53.98;101004.50;4914967;28;122931;-83
2022/08/03 11:50:34;;;;;;;;;;;;;;;29.28;54.15;101007.31;4919258;28;124396;-85
2022/08/03 11:52:59;;;;;;;;;;;;;;;29.27;54.14;101005.06;4945672;28;122332;-86
2022/08/03 11:55:25;;;;;;;;;;;;;;;29.33;54.52;101008.41;4946374;28;122475;-86
2022/08/03 11:57:51;;;;;;;;;;;;;;;29.39;53.64;101003.31;4946527;28;126184;-84
2022/08/03 12:00:22;;;;;;;;;;;;;;;29.32;53.54;101004.09;4929238;28;123138;-85
2022/08/03 12:03:15;;;;;;;;;;;;;;;29.25;53.68;101008.47;4914129;28;124596;-85
2022/08/03 12:05:42;;;;;;;;;;;;;;;29.11;53.51;101006.53;4943708;28;122891;-84
2022/08/03 12:08:08;;;;;;;;;;;;;;;29.05;54.08;101006.72;4947782;28;122214;-85
2022/08/03 12:10:34;;;;;;;;;;;;;;;29.06;53.63;101005.41;4945478;28;125072;-85
2022/08/03 12:13:00;;;;;;;;;;;;;;;29.07;53.88;101006.16;4933935;28;123851;-86
2022/08/03 12:15:30;;;;;;;;;;;;;;;29.00;53.57;100999.22;4930301;28;123026;-86
2022/08/03 12:17:56;;;;;;;;;;;;;;;28.99;54.27;101011.84;4906458;28;125516;-85
2022/08/03 12:20:23;;;;;;;;;;;;;;;29.02;54.47;101007.88;4943952;28;122765;-85
2022/08/03 12:22:49;;;;;;;;;;;;;;;29.11;54.31;101004.44;4953330;28;122602;-84
2022/08/03 12:25:25;;;;;;;;;;;;;;;29.16;53.77;101009.13;4934790;28;126246;-85
2022/08/03 12:27:51;;;;;;;;;;;;;;;29.16;53.97;100999.88;4931368;28;122410;-85
2022/08/03 12:30:17;;;;;;;;;;;;;;;29.18;53.87;101000.81;4945477;28;122193;-85
2022/08/03 12:32:43;;;;;;;;;;;;;;;29.19;53.91;101004.38;4952733;28;123039;-86
2022/08/03 12:35:09;;;;;;;;;;;;;;;29.17;53.90;101016.25;4923873;28;122585;-84
2022/08/03 12:37:35;;;;;;;;;;;;;;;29.16;54.20;101014.00;4947192;28;122510;-85
2022/08/03 12:40:05;;;;;;;;;;;;;;;29.14;53.82;101014.59;4943349;28;123326;-82
2022/08/03 12:42:30;;;;;;;;;;;;;;;29.12;54.43;101002.38;4917054;28;124031;-83